^^
Station Historical Data
Daily Summary for January 13, 2018 Units:  Both    English   Metric
« Previous Day
Next Day »
Daily Weekly Monthly Yearly Custom
  High: Low: Average:
Temperature: TemperatureF °F /  -17.8 °C 60.3 °F /  15.7 °C 76 °F /  24.4 °C
Dew Point: DewpointF °F /  -17.8 °C 43.9 °F /  6.6 °C 51.3 °F /  10.7 °C
Humidity: Humidity% 21% 48%
Wind Speed: WindSpeedMPHmph /  0km/h - 1.2mph /  1.9km/h
Wind Gust: WindSpeedGustMPHmph /  0km/h - -
Wind- - ESE
Pressure: PressureIn in /  0 hPa 29.63 in /  1003.3 hPa -
Precipitation: 0.05 in /  1.27 mm    
Historical Graphs
 
 
Tabular Data for January 13, 2018
Time Temperature Dew Point Pressure Wind Wind Speed Wind Gust Humidity Rainfall Rate (Hourly) solar Conditions
TemperatureF °F /  -17.8 °C DewpointF °F /  -17.8 °C PressureInin /  0hPa Calm     Humidity% HourlyPrecipInin /  0mm SolarRadiationWatts/m^2 W/m2 Conditions
00:00 64.8 °F /  18.2 °C 56.7 °F /  13.7 °C 29.80in /  1009hPa Calm   3.0mph /  4.8km/h 75% 0.02in /  0.51mm 0.0 W/m2
00:05 64.9 °F /  18.3 °C 56.8 °F /  13.8 °C 29.79in /  1008.7hPa South 0.9mph /  1.4km/h 4.0mph /  6.4km/h 75% 0.02in /  0.51mm 0.0 W/m2
00:10 64.9 °F /  18.3 °C 57.2 °F /  14 °C 29.79in /  1008.7hPa Calm   1.0mph /  1.6km/h 76% 0.02in /  0.51mm 0.0 W/m2
00:21 64.8 °F /  18.2 °C 57.7 °F /  14.3 °C 29.78in /  1008.4hPa SE 4.9mph /  7.9km/h 7.0mph /  11.3km/h 78% 0.03in /  0.76mm 0.0 W/m2
00:33 64.0 °F /  17.8 °C 58.5 °F /  14.7 °C 29.78in /  1008.4hPa Calm   2.0mph /  3.2km/h 82% 0.05in /  1.27mm 0.0 W/m2
00:38 63.7 °F /  17.6 °C 58.5 °F /  14.7 °C 29.78in /  1008.4hPa Calm   2.0mph /  3.2km/h 83% 0.05in /  1.27mm 0.0 W/m2
00:43 63.7 °F /  17.6 °C 59.0 °F /  15 °C 29.78in /  1008.4hPa Calm     85% 0.05in /  1.27mm 0.0 W/m2
00:48 63.3 °F /  17.4 °C 59.0 °F /  15 °C 29.78in /  1008.4hPa Calm     86% 0.05in /  1.27mm 0.0 W/m2
00:54 63.3 °F /  17.4 °C 59.4 °F /  15.2 °C 29.78in /  1008.4hPa Calm     87% 0.05in /  1.27mm 0.0 W/m2
01:04 63.3 °F /  17.4 °C 60.1 °F /  15.6 °C 29.78in /  1008.4hPa Calm     89% 0.05in /  1.27mm 0.0 W/m2
01:09 63.3 °F /  17.4 °C 60.1 °F /  15.6 °C 29.78in /  1008.4hPa Calm     89% 0.05in /  1.27mm 0.0 W/m2
01:18 63.7 °F /  17.6 °C 59.0 °F /  15 °C 29.77in /  1008hPa Calm   1.0mph /  1.6km/h 85% 0.02in /  0.51mm 0.0 W/m2
01:23 63.7 °F /  17.6 °C 57.4 °F /  14.1 °C 29.77in /  1008hPa SW 0.9mph /  1.4km/h 3.0mph /  4.8km/h 80% 0.01in /  0.25mm 0.0 W/m2
01:28 64.0 °F /  17.8 °C 56.7 °F /  13.7 °C 29.76in /  1007.7hPa Calm   4.0mph /  6.4km/h 77% 0.00in /  0mm 0.0 W/m2
01:33 64.0 °F /  17.8 °C 57.0 °F /  13.9 °C 29.76in /  1007.7hPa ESE 2.0mph /  3.2km/h 2.0mph /  3.2km/h 78% 0.00in /  0mm 0.0 W/m2
01:39 63.9 °F /  17.7 °C 57.6 °F /  14.2 °C 29.76in /  1007.7hPa Calm     80% 0.00in /  0mm 0.0 W/m2
01:46 63.7 °F /  17.6 °C 58.1 °F /  14.5 °C 29.76in /  1007.7hPa Calm   1.0mph /  1.6km/h 82% 0.00in /  0mm 0.0 W/m2
02:00 62.8 °F /  17.1 °C 57.6 °F /  14.2 °C 29.76in /  1007.7hPa East 0.9mph /  1.4km/h 1.0mph /  1.6km/h 83% 0.00in /  0mm 0.0 W/m2
02:05 62.8 °F /  17.1 °C 57.9 °F /  14.4 °C 29.76in /  1007.7hPa Calm     84% 0.00in /  0mm 0.0 W/m2
02:11 62.8 °F /  17.1 °C 58.3 °F /  14.6 °C 29.75in /  1007.3hPa Calm     85% 0.00in /  0mm 0.0 W/m2
02:16 62.6 °F /  17 °C 58.6 °F /  14.8 °C 29.75in /  1007.3hPa Calm     87% 0.00in /  0mm 0.0 W/m2
02:21 62.6 °F /  17 °C 58.6 °F /  14.8 °C 29.75in /  1007.3hPa Calm     87% 0.00in /  0mm 0.0 W/m2
02:26 62.4 °F /  16.9 °C 58.5 °F /  14.7 °C 29.75in /  1007.3hPa Calm   1.0mph /  1.6km/h 87% 0.00in /  0mm 0.0 W/m2
02:35 62.4 °F /  16.9 °C 58.5 °F /  14.7 °C 29.74in /  1007hPa Calm   1.0mph /  1.6km/h 87% 0.00in /  0mm 0.0 W/m2
02:40 62.4 °F /  16.9 °C 58.1 °F /  14.5 °C 29.74in /  1007hPa ESE 0.9mph /  1.4km/h 1.0mph /  1.6km/h 86% 0.00in /  0mm 0.0 W/m2
02:46 62.2 °F /  16.8 °C 57.7 °F /  14.3 °C 29.74in /  1007hPa Calm   1.0mph /  1.6km/h 85% 0.00in /  0mm 0.0 W/m2
02:56 62.1 °F /  16.7 °C 57.2 °F /  14 °C 29.74in /  1007hPa Calm   3.0mph /  4.8km/h 84% 0.00in /  0mm 0.0 W/m2
03:01 62.1 °F /  16.7 °C 57.2 °F /  14 °C 29.74in /  1007hPa Calm     84% 0.00in /  0mm 0.0 W/m2
03:06 62.1 °F /  16.7 °C 57.2 °F /  14 °C 29.74in /  1007hPa Calm   2.0mph /  3.2km/h 84% 0.00in /  0mm 0.0 W/m2
03:14 61.9 °F /  16.6 °C 57.0 °F /  13.9 °C 29.73in /  1006.7hPa Calm   1.0mph /  1.6km/h 84% 0.00in /  0mm 0.0 W/m2
03:19 61.7 °F /  16.5 °C 56.5 °F /  13.6 °C 29.74in /  1007hPa Calm   2.0mph /  3.2km/h 83% 0.00in /  0mm 0.0 W/m2
03:24 61.5 °F /  16.4 °C 56.3 °F /  13.5 °C 29.73in /  1006.7hPa Calm   1.0mph /  1.6km/h 83% 0.00in /  0mm 0.0 W/m2
03:30 61.5 °F /  16.4 °C 56.3 °F /  13.5 °C 29.74in /  1007hPa Calm   2.0mph /  3.2km/h 83% 0.00in /  0mm 0.0 W/m2
03:35 61.3 °F /  16.3 °C 56.5 °F /  13.6 °C 29.74in /  1007hPa Calm     84% 0.00in /  0mm 0.0 W/m2
03:40 61.2 °F /  16.2 °C 55.9 °F /  13.3 °C 29.74in /  1007hPa Calm     83% 0.00in /  0mm 0.0 W/m2
03:45 61.2 °F /  16.2 °C 55.9 °F /  13.3 °C 29.74in /  1007hPa Calm     83% 0.00in /  0mm 0.0 W/m2
03:50 61.0 °F /  16.1 °C 55.8 °F /  13.2 °C 29.74in /  1007hPa Calm     83% 0.00in /  0mm 0.0 W/m2
03:55 61.0 °F /  16.1 °C 55.8 °F /  13.2 °C 29.74in /  1007hPa Calm     83% 0.00in /  0mm 0.0 W/m2
04:01 60.8 °F /  16 °C 55.9 °F /  13.3 °C 29.74in /  1007hPa Calm     84% 0.00in /  0mm 0.0 W/m2
04:09 60.6 °F /  15.9 °C 55.4 °F /  13 °C 29.74in /  1007hPa Calm   1.0mph /  1.6km/h 83% 0.00in /  0mm 0.0 W/m2
04:14 60.6 °F /  15.9 °C 55.4 °F /  13 °C 29.73in /  1006.7hPa Calm   1.0mph /  1.6km/h 83% 0.00in /  0mm 0.0 W/m2
04:19 60.6 °F /  15.9 °C 55.4 °F /  13 °C 29.74in /  1007hPa Calm     83% 0.00in /  0mm 0.0 W/m2
04:26 60.6 °F /  15.9 °C 55.4 °F /  13 °C 29.74in /  1007hPa Calm   2.0mph /  3.2km/h 83% 0.00in /  0mm 0.0 W/m2
04:31 60.6 °F /  15.9 °C 55.0 °F /  12.8 °C 29.74in /  1007hPa Calm   1.0mph /  1.6km/h 82% 0.00in /  0mm 0.0 W/m2
04:37 61.0 °F /  16.1 °C 56.1 °F /  13.4 °C 29.74in /  1007hPa Calm     84% 0.00in /  0mm 0.0 W/m2
04:48 61.0 °F /  16.1 °C 56.5 °F /  13.6 °C 29.75in /  1007.3hPa Calm   1.0mph /  1.6km/h 85% 0.00in /  0mm 0.0 W/m2
04:53 61.0 °F /  16.1 °C 55.8 °F /  13.2 °C 29.75in /  1007.3hPa Calm   1.0mph /  1.6km/h 83% 0.00in /  0mm 0.0 W/m2
04:58 60.8 °F /  16 °C 55.9 °F /  13.3 °C 29.75in /  1007.3hPa Calm     84% 0.00in /  0mm 0.0 W/m2
05:03 60.6 °F /  15.9 °C 55.4 °F /  13 °C 29.75in /  1007.3hPa Calm     83% 0.00in /  0mm 0.0 W/m2
05:12 60.6 °F /  15.9 °C 55.4 °F /  13 °C 29.75in /  1007.3hPa Calm   1.0mph /  1.6km/h 83% 0.00in /  0mm 0.0 W/m2
05:17 60.6 °F /  15.9 °C 55.4 °F /  13 °C 29.76in /  1007.7hPa Calm     83% 0.00in /  0mm 0.0 W/m2
05:31 60.3 °F /  15.7 °C 55.0 °F /  12.8 °C 29.76in /  1007.7hPa Calm     83% 0.00in /  0mm 0.0 W/m2
05:37 60.3 °F /  15.7 °C 55.0 °F /  12.8 °C 29.76in /  1007.7hPa East 3.0mph /  4.8km/h 3.0mph /  4.8km/h 83% 0.00in /  0mm 0.0 W/m2
05:42 60.3 °F /  15.7 °C 55.4 °F /  13 °C 29.77in /  1008hPa Calm     84% 0.00in /  0mm 0.0 W/m2
05:47 60.3 °F /  15.7 °C 55.0 °F /  12.8 °C 29.77in /  1008hPa Calm     83% 0.00in /  0mm 0.0 W/m2
05:57 60.3 °F /  15.7 °C 55.4 °F /  13 °C 29.77in /  1008hPa Calm     84% 0.00in /  0mm 0.0 W/m2
06:02 60.3 °F /  15.7 °C 54.7 °F /  12.6 °C 29.78in /  1008.4hPa Calm     82% 0.00in /  0mm 0.0 W/m2
06:07 60.3 °F /  15.7 °C 54.7 °F /  12.6 °C 29.78in /  1008.4hPa Calm   3.0mph /  4.8km/h 82% 0.00in /  0mm 0.0 W/m2
06:12 60.3 °F /  15.7 °C 54.7 °F /  12.6 °C 29.78in /  1008.4hPa SE 2.0mph /  3.2km/h 2.0mph /  3.2km/h 82% 0.00in /  0mm 0.0 W/m2
06:18 60.3 °F /  15.7 °C 54.3 °F /  12.4 °C 29.78in /  1008.4hPa Calm     81% 0.00in /  0mm 0.0 W/m2
06:26 60.3 °F /  15.7 °C 54.3 °F /  12.4 °C 29.78in /  1008.4hPa Calm   1.0mph /  1.6km/h 81% 0.00in /  0mm 5.0 W/m2
06:31 60.3 °F /  15.7 °C 53.8 °F /  12.1 °C 29.78in /  1008.4hPa Calm     79% 0.00in /  0mm 7.0 W/m2
06:36 60.3 °F /  15.7 °C 53.4 °F /  11.9 °C 29.78in /  1008.4hPa Calm   2.0mph /  3.2km/h 78% 0.00in /  0mm 11.0 W/m2
06:46 60.4 °F /  15.8 °C 52.9 °F /  11.6 °C 29.79in /  1008.7hPa Calm   2.0mph /  3.2km/h 76% 0.00in /  0mm 14.0 W/m2
06:52 60.8 °F /  16 °C 53.6 °F /  12 °C 29.79in /  1008.7hPa Calm   1.0mph /  1.6km/h 77% 0.00in /  0mm 16.0 W/m2
06:57 61.0 °F /  16.1 °C 54.1 °F /  12.3 °C 29.79in /  1008.7hPa ESE 2.0mph /  3.2km/h 3.0mph /  4.8km/h 78% 0.00in /  0mm 18.0 W/m2
07:03 61.3 °F /  16.3 °C 53.4 °F /  11.9 °C 29.79in /  1008.7hPa Calm   1.0mph /  1.6km/h 75% 0.00in /  0mm 18.0 W/m2
07:08 61.9 °F /  16.6 °C 54.7 °F /  12.6 °C 29.79in /  1008.7hPa ESE 2.0mph /  3.2km/h 3.0mph /  4.8km/h 77% 0.00in /  0mm 19.0 W/m2
07:15 62.2 °F /  16.8 °C 53.4 °F /  11.9 °C 29.79in /  1008.7hPa Calm   2.0mph /  3.2km/h 73% 0.00in /  0mm 21.0 W/m2
07:20 62.8 °F /  17.1 °C 53.6 °F /  12 °C 29.79in /  1008.7hPa ENE 0.9mph /  1.4km/h 2.0mph /  3.2km/h 72% 0.00in /  0mm 23.0 W/m2
07:25 63.1 °F /  17.3 °C 53.2 °F /  11.8 °C 29.79in /  1008.7hPa Calm   4.0mph /  6.4km/h 70% 0.00in /  0mm 23.0 W/m2
07:35 64.0 °F /  17.8 °C 54.1 °F /  12.3 °C 29.79in /  1008.7hPa Calm   2.0mph /  3.2km/h 70% 0.00in /  0mm 26.0 W/m2
07:40 64.6 °F /  18.1 °C 54.5 °F /  12.5 °C 29.79in /  1008.7hPa Calm   2.0mph /  3.2km/h 70% 0.00in /  0mm 26.0 W/m2
07:50 65.5 °F /  18.6 °C 54.7 °F /  12.6 °C 29.79in /  1008.7hPa Calm   1.0mph /  1.6km/h 68% 0.00in /  0mm 171.0 W/m2
07:56 66.0 °F /  18.9 °C 55.2 °F /  12.9 °C 29.79in /  1008.7hPa Calm   1.0mph /  1.6km/h 68% 0.00in /  0mm 281.0 W/m2
08:01 66.7 °F /  19.3 °C 54.7 °F /  12.6 °C 29.79in /  1008.7hPa Calm   1.0mph /  1.6km/h 65% 0.00in /  0mm 334.0 W/m2
08:06 67.8 °F /  19.9 °C 54.7 °F /  12.6 °C 29.79in /  1008.7hPa Calm     63% 0.00in /  0mm 367.0 W/m2
08:12 69.1 °F /  20.6 °C 54.1 °F /  12.3 °C 29.79in /  1008.7hPa Calm   1.0mph /  1.6km/h 59% 0.00in /  0mm 396.0 W/m2
08:17 69.8 °F /  21 °C 52.0 °F /  11.1 °C 29.79in /  1008.7hPa Calm   1.0mph /  1.6km/h 53% 0.00in /  0mm 417.0 W/m2
08:22 70.9 °F /  21.6 °C 49.6 °F /  9.8 °C 29.79in /  1008.7hPa Calm     47% 0.00in /  0mm 436.0 W/m2
08:28 72.3 °F /  22.4 °C 49.8 °F /  9.9 °C 29.79in /  1008.7hPa Calm     45% 0.00in /  0mm 462.0 W/m2
08:37 75.4 °F /  24.1 °C 51.3 °F /  10.7 °C 29.79in /  1008.7hPa Calm     43% 0.00in /  0mm 497.0 W/m2
08:43 75.9 °F /  24.4 °C 49.8 °F /  9.9 °C 29.79in /  1008.7hPa Calm     40% 0.00in /  0mm 517.0 W/m2
08:48 76.5 °F /  24.7 °C 51.1 °F /  10.6 °C 29.79in /  1008.7hPa Calm     41% 0.00in /  0mm 536.0 W/m2
08:56 78.4 °F /  25.8 °C 51.4 °F /  10.8 °C 29.79in /  1008.7hPa NW 0.9mph /  1.4km/h 2.0mph /  3.2km/h 39% 0.00in /  0mm 568.0 W/m2
09:01 79.2 °F /  26.2 °C 50.7 °F /  10.4 °C 29.79in /  1008.7hPa Calm   1.0mph /  1.6km/h 37% 0.00in /  0mm 585.0 W/m2
09:10 79.5 °F /  26.4 °C 50.2 °F /  10.1 °C 29.79in /  1008.7hPa Calm     36% 0.00in /  0mm 617.0 W/m2
09:15 79.9 °F /  26.6 °C 52.0 °F /  11.1 °C 29.79in /  1008.7hPa SW 2.0mph /  3.2km/h 3.0mph /  4.8km/h 38% 0.00in /  0mm 636.0 W/m2
09:20 80.1 °F /  26.7 °C 51.4 °F /  10.8 °C 29.79in /  1008.7hPa Calm   5.0mph /  8km/h 37% 0.00in /  0mm 654.0 W/m2
09:25 80.2 °F /  26.8 °C 49.3 °F /  9.6 °C 29.78in /  1008.4hPa SW 0.9mph /  1.4km/h 1.0mph /  1.6km/h 34% 0.00in /  0mm 671.0 W/m2
09:30 81.0 °F /  27.2 °C 50.7 °F /  10.4 °C 29.78in /  1008.4hPa Calm   1.0mph /  1.6km/h 35% 0.00in /  0mm 689.0 W/m2
09:36 81.9 °F /  27.7 °C 51.4 °F /  10.8 °C 29.78in /  1008.4hPa Calm   2.0mph /  3.2km/h 35% 0.00in /  0mm 707.0 W/m2
09:41 82.4 °F /  28 °C 50.4 °F /  10.2 °C 29.78in /  1008.4hPa SSE 2.0mph /  3.2km/h 3.0mph /  4.8km/h 33% 0.00in /  0mm 721.0 W/m2
09:51 82.9 °F /  28.3 °C 50.0 °F /  10 °C 29.78in /  1008.4hPa South 2.0mph /  3.2km/h 5.0mph /  8km/h 32% 0.00in /  0mm 752.0 W/m2
09:56 83.5 °F /  28.6 °C 49.6 °F /  9.8 °C 29.78in /  1008.4hPa ENE 4.0mph /  6.4km/h 5.0mph /  8km/h 31% 0.00in /  0mm 775.0 W/m2
10:02 83.8 °F /  28.8 °C 50.0 °F /  10 °C 29.78in /  1008.4hPa Calm   5.0mph /  8km/h 31% 0.00in /  0mm 788.0 W/m2
10:07 84.4 °F /  29.1 °C 49.6 °F /  9.8 °C 29.78in /  1008.4hPa Calm   1.0mph /  1.6km/h 30% 0.00in /  0mm 803.0 W/m2
10:12 84.4 °F /  29.1 °C 48.7 °F /  9.3 °C 29.78in /  1008.4hPa ESE 2.0mph /  3.2km/h 3.0mph /  4.8km/h 29% 0.00in /  0mm 817.0 W/m2
10:19 84.6 °F /  29.2 °C 49.6 °F /  9.8 °C 29.78in /  1008.4hPa NE 0.9mph /  1.4km/h 1.0mph /  1.6km/h 30% 0.00in /  0mm 842.0 W/m2
10:24 84.6 °F /  29.2 °C 47.8 °F /  8.8 °C 29.78in /  1008.4hPa West 0.9mph /  1.4km/h 2.0mph /  3.2km/h 28% 0.00in /  0mm 856.0 W/m2
10:29 84.6 °F /  29.2 °C 47.8 °F /  8.8 °C 29.78in /  1008.4hPa Calm   1.0mph /  1.6km/h 28% 0.00in /  0mm 874.0 W/m2
10:34 84.7 °F /  29.3 °C 48.9 °F /  9.4 °C 29.78in /  1008.4hPa East 2.0mph /  3.2km/h 3.0mph /  4.8km/h 29% 0.00in /  0mm 909.0 W/m2
10:39 84.9 °F /  29.4 °C 48.2 °F /  9 °C 29.78in /  1008.4hPa NNW 0.9mph /  1.4km/h 2.0mph /  3.2km/h 28% 0.00in /  0mm 928.0 W/m2
10:50 85.8 °F /  29.9 °C 48.9 °F /  9.4 °C 29.78in /  1008.4hPa NNW 4.9mph /  7.9km/h 5.0mph /  8km/h 28% 0.00in /  0mm 956.0 W/m2
10:55 86.4 °F /  30.2 °C 49.5 °F /  9.7 °C 29.78in /  1008.4hPa ESE 0.9mph /  1.4km/h 4.0mph /  6.4km/h 28% 0.00in /  0mm 970.0 W/m2
11:00 86.7 °F /  30.4 °C 47.7 °F /  8.7 °C 29.78in /  1008.4hPa Calm   3.0mph /  4.8km/h 26% 0.00in /  0mm 976.0 W/m2
11:12 85.8 °F /  29.9 °C 50.7 °F /  10.4 °C 29.77in /  1008hPa NE 4.0mph /  6.4km/h 4.0mph /  6.4km/h 30% 0.00in /  0mm 997.0 W/m2
11:17 86.4 °F /  30.2 °C 47.5 °F /  8.6 °C 29.77in /  1008hPa NNW 2.0mph /  3.2km/h 3.0mph /  4.8km/h 26% 0.00in /  0mm 1041.0 W/m2
11:22 87.1 °F /  30.6 °C 48.0 °F /  8.9 °C 29.77in /  1008hPa SE 0.9mph /  1.4km/h 2.0mph /  3.2km/h 26% 0.00in /  0mm 1034.0 W/m2
11:28 87.3 °F /  30.7 °C 47.1 °F /  8.4 °C 29.77in /  1008hPa NE 2.0mph /  3.2km/h 6.0mph /  9.7km/h 25% 0.00in /  0mm 1078.0 W/m2
11:38 87.1 °F /  30.6 °C 46.9 °F /  8.3 °C 29.76in /  1007.7hPa NE 2.0mph /  3.2km/h 10.0mph /  16.1km/h 25% 0.00in /  0mm 1100.0 W/m2
11:43 87.3 °F /  30.7 °C 47.1 °F /  8.4 °C 29.76in /  1007.7hPa SE 6.0mph /  9.7km/h 6.0mph /  9.7km/h 25% 0.00in /  0mm 1104.0 W/m2
11:48 87.3 °F /  30.7 °C 48.2 °F /  9 °C 29.76in /  1007.7hPa ENE 4.9mph /  7.9km/h 7.0mph /  11.3km/h 26% 0.00in /  0mm 1109.0 W/m2
11:53 87.4 °F /  30.8 °C 48.4 °F /  9.1 °C 29.76in /  1007.7hPa East 4.9mph /  7.9km/h 7.0mph /  11.3km/h 26% 0.00in /  0mm 1116.0 W/m2
11:58 88.0 °F /  31.1 °C 45.5 °F /  7.5 °C 29.76in /  1007.7hPa Calm   3.0mph /  4.8km/h 23% 0.00in /  0mm 1127.0 W/m2
12:04 88.5 °F /  31.4 °C 48.2 °F /  9 °C 29.76in /  1007.7hPa ESE 8.1mph /  13km/h 8.1mph /  13km/h 25% 0.00in /  0mm 1146.0 W/m2
12:09 89.1 °F /  31.7 °C 45.3 °F /  7.4 °C 29.76in /  1007.7hPa ENE 0.9mph /  1.4km/h 9.0mph /  14.5km/h 22% 0.00in /  0mm 1134.0 W/m2
12:14 89.1 °F /  31.7 °C 46.4 °F /  8 °C 29.76in /  1007.7hPa SE 4.0mph /  6.4km/h 11.0mph /  17.7km/h 23% 0.00in /  0mm 244.0 W/m2
12:19 88.7 °F /  31.5 °C 46.2 °F /  7.9 °C 29.76in /  1007.7hPa NNE 0.9mph /  1.4km/h 7.0mph /  11.3km/h 23% 0.00in /  0mm 1167.0 W/m2
12:24 88.5 °F /  31.4 °C 46.0 °F /  7.8 °C 29.75in /  1007.3hPa SE 4.0mph /  6.4km/h 10.0mph /  16.1km/h 23% 0.00in /  0mm 186.0 W/m2
12:29 88.2 °F /  31.2 °C 46.8 °F /  8.2 °C 29.76in /  1007.7hPa East 4.9mph /  7.9km/h 12.0mph /  19.3km/h 24% 0.00in /  0mm 1311.0 W/m2
12:39 88.0 °F /  31.1 °C 45.5 °F /  7.5 °C 29.75in /  1007.3hPa NNE 2.9mph /  4.7km/h 4.0mph /  6.4km/h 23% 0.00in /  0mm 248.0 W/m2
12:44 87.6 °F /  30.9 °C 45.3 °F /  7.4 °C 29.75in /  1007.3hPa ENE 0.9mph /  1.4km/h 3.0mph /  4.8km/h 23% 0.00in /  0mm 304.0 W/m2
12:50 87.6 °F /  30.9 °C 47.5 °F /  8.6 °C 29.75in /  1007.3hPa ENE 2.9mph /  4.7km/h 9.0mph /  14.5km/h 25% 0.00in /  0mm 1311.0 W/m2
12:55 88.3 °F /  31.3 °C 45.9 °F /  7.7 °C 29.75in /  1007.3hPa ESE 2.0mph /  3.2km/h 9.0mph /  14.5km/h 23% 0.00in /  0mm 1259.0 W/m2
13:00 88.3 °F /  31.3 °C 45.9 °F /  7.7 °C 29.75in /  1007.3hPa NNE 2.9mph /  4.7km/h 6.0mph /  9.7km/h 23% 0.00in /  0mm 288.0 W/m2
13:05 88.2 °F /  31.2 °C 45.7 °F /  7.6 °C 29.75in /  1007.3hPa South 0.9mph /  1.4km/h 8.0mph /  12.9km/h 23% 0.00in /  0mm 369.0 W/m2
13:10 88.5 °F /  31.4 °C 47.1 °F /  8.4 °C 29.75in /  1007.3hPa NNE 4.0mph /  6.4km/h 11.0mph /  17.7km/h 24% 0.00in /  0mm 1327.0 W/m2
13:15 88.5 °F /  31.4 °C 47.1 °F /  8.4 °C 29.75in /  1007.3hPa Calm   7.0mph /  11.3km/h 24% 0.00in /  0mm 304.0 W/m2
13:20 88.2 °F /  31.2 °C 47.8 °F /  8.8 °C 29.75in /  1007.3hPa SE 6.9mph /  11.1km/h 8.0mph /  12.9km/h 25% 0.00in /  0mm 1234.0 W/m2
13:25 88.7 °F /  31.5 °C 46.2 °F /  7.9 °C 29.75in /  1007.3hPa SSE 2.9mph /  4.7km/h 8.0mph /  12.9km/h 23% 0.00in /  0mm 1227.0 W/m2
13:30 89.2 °F /  31.8 °C 47.7 °F /  8.7 °C 29.74in /  1007hPa East 0.9mph /  1.4km/h 6.0mph /  9.7km/h 24% 0.00in /  0mm 1288.0 W/m2
13:36 89.2 °F /  31.8 °C 46.6 °F /  8.1 °C 29.74in /  1007hPa Calm   4.0mph /  6.4km/h 23% 0.00in /  0mm 357.0 W/m2
13:41 89.2 °F /  31.8 °C 47.7 °F /  8.7 °C 29.74in /  1007hPa NE 2.9mph /  4.7km/h 6.0mph /  9.7km/h 24% 0.00in /  0mm 1288.0 W/m2
13:46 89.2 °F /  31.8 °C 46.6 °F /  8.1 °C 29.74in /  1007hPa NNE 2.9mph /  4.7km/h 7.0mph /  11.3km/h 23% 0.00in /  0mm 316.0 W/m2
13:51 89.2 °F /  31.8 °C 47.7 °F /  8.7 °C 29.74in /  1007hPa Calm   3.0mph /  4.8km/h 24% 0.00in /  0mm 366.0 W/m2
13:56 89.1 °F /  31.7 °C 49.6 °F /  9.8 °C 29.74in /  1007hPa Calm   3.0mph /  4.8km/h 26% 0.00in /  0mm 445.0 W/m2
14:01 89.2 °F /  31.8 °C 46.6 °F /  8.1 °C 29.73in /  1006.7hPa NNE 0.9mph /  1.4km/h 5.0mph /  8km/h 23% 0.00in /  0mm 585.0 W/m2
14:06 89.2 °F /  31.8 °C 46.6 °F /  8.1 °C 29.73in /  1006.7hPa Calm   2.0mph /  3.2km/h 23% 0.00in /  0mm 403.0 W/m2
14:11 88.9 °F /  31.6 °C 47.5 °F /  8.6 °C 29.73in /  1006.7hPa South 4.0mph /  6.4km/h 8.0mph /  12.9km/h 24% 0.00in /  0mm 341.0 W/m2
14:16 88.5 °F /  31.4 °C 46.0 °F /  7.8 °C 29.72in /  1006.3hPa East 4.0mph /  6.4km/h 11.0mph /  17.7km/h 23% 0.00in /  0mm 346.0 W/m2
14:22 88.5 °F /  31.4 °C 47.1 °F /  8.4 °C 29.72in /  1006.3hPa NNW 4.0mph /  6.4km/h 4.0mph /  6.4km/h 24% 0.00in /  0mm 373.0 W/m2
14:27 88.5 °F /  31.4 °C 47.1 °F /  8.4 °C 29.73in /  1006.7hPa ENE 2.9mph /  4.7km/h 8.0mph /  12.9km/h 24% 0.00in /  0mm 404.0 W/m2
14:32 89.4 °F /  31.9 °C 46.8 °F /  8.2 °C 29.72in /  1006.3hPa NNE 2.9mph /  4.7km/h 7.0mph /  11.3km/h 23% 0.00in /  0mm 1304.0 W/m2
14:43 90.5 °F /  32.5 °C 46.4 °F /  8 °C 29.72in /  1006.3hPa SSE 4.0mph /  6.4km/h 8.0mph /  12.9km/h 22% 0.00in /  0mm 424.0 W/m2
14:49 90.5 °F /  32.5 °C 47.7 °F /  8.7 °C 29.72in /  1006.3hPa ENE 2.0mph /  3.2km/h 7.0mph /  11.3km/h 23% 0.00in /  0mm 1109.0 W/m2
14:58 91.2 °F /  32.9 °C 47.1 °F /  8.4 °C 29.71in /  1006hPa SE 10.1mph /  16.3km/h 10.1mph /  16.3km/h 22% 0.00in /  0mm 1021.0 W/m2
15:03 91.6 °F /  33.1 °C 46.0 °F /  7.8 °C 29.71in /  1006hPa NNE 4.0mph /  6.4km/h 9.0mph /  14.5km/h 21% 0.00in /  0mm 1016.0 W/m2
15:12 91.8 °F /  33.2 °C 46.2 °F /  7.9 °C 29.70in /  1005.6hPa ESE 4.0mph /  6.4km/h 10.0mph /  16.1km/h 21% 0.00in /  0mm 1065.0 W/m2
15:17 91.6 °F /  33.1 °C 46.0 °F /  7.8 °C 29.70in /  1005.6hPa NNE 0.9mph /  1.4km/h 11.0mph /  17.7km/h 21% 0.00in /  0mm 257.0 W/m2
15:22 90.9 °F /  32.7 °C 46.8 °F /  8.2 °C 29.70in /  1005.6hPa NE 2.0mph /  3.2km/h 7.0mph /  11.3km/h 22% 0.00in /  0mm 181.0 W/m2
15:27 90.5 °F /  32.5 °C 47.7 °F /  8.7 °C 29.70in /  1005.6hPa NE 4.9mph /  7.9km/h 14.0mph /  22.5km/h 23% 0.00in /  0mm 933.0 W/m2
15:32 90.9 °F /  32.7 °C 46.8 °F /  8.2 °C 29.70in /  1005.6hPa East 2.0mph /  3.2km/h 9.0mph /  14.5km/h 22% 0.00in /  0mm 949.0 W/m2
15:43 91.2 °F /  32.9 °C 47.1 °F /  8.4 °C 29.68in /  1005hPa SE 4.0mph /  6.4km/h 11.0mph /  17.7km/h 22% 0.00in /  0mm 902.0 W/m2
15:48 91.9 °F /  33.3 °C 47.7 °F /  8.7 °C 29.68in /  1005hPa SE 2.0mph /  3.2km/h 9.0mph /  14.5km/h 22% 0.00in /  0mm 889.0 W/m2
15:53 92.1 °F /  33.4 °C 46.6 °F /  8.1 °C 29.68in /  1005hPa SSE 2.0mph /  3.2km/h 3.0mph /  4.8km/h 21% 0.00in /  0mm 847.0 W/m2
15:59 92.5 °F /  33.6 °C 48.0 °F /  8.9 °C 29.67in /  1004.6hPa SE 6.0mph /  9.7km/h 8.0mph /  12.9km/h 22% 0.00in /  0mm 844.0 W/m2
16:09 92.1 °F /  33.4 °C 47.8 °F /  8.8 °C 29.67in /  1004.6hPa SSE 2.9mph /  4.7km/h 3.0mph /  4.8km/h 22% 0.00in /  0mm 812.0 W/m2
16:14 92.5 °F /  33.6 °C 48.0 °F /  8.9 °C 29.67in /  1004.6hPa ESE 2.0mph /  3.2km/h 5.0mph /  8km/h 22% 0.00in /  0mm 364.0 W/m2
16:19 91.9 °F /  33.3 °C 46.4 °F /  8 °C 29.67in /  1004.6hPa NE 0.9mph /  1.4km/h 10.0mph /  16.1km/h 21% 0.00in /  0mm 142.0 W/m2
16:29 90.3 °F /  32.4 °C 46.4 °F /  8 °C 29.66in /  1004.3hPa Calm   4.0mph /  6.4km/h 22% 0.00in /  0mm 142.0 W/m2
16:39 90.9 °F /  32.7 °C 48.0 °F /  8.9 °C 29.66in /  1004.3hPa NE 2.9mph /  4.7km/h 4.0mph /  6.4km/h 23% 0.00in /  0mm 714.0 W/m2
16:45 91.6 °F /  33.1 °C 47.3 °F /  8.5 °C 29.66in /  1004.3hPa ENE 4.0mph /  6.4km/h 9.0mph /  14.5km/h 22% 0.00in /  0mm 148.0 W/m2
16:50 90.9 °F /  32.7 °C 46.8 °F /  8.2 °C 29.66in /  1004.3hPa Calm   10.0mph /  16.1km/h 22% 0.00in /  0mm 83.0 W/m2
16:55 90.0 °F /  32.2 °C 47.1 °F /  8.4 °C 29.66in /  1004.3hPa ENE 2.0mph /  3.2km/h 9.0mph /  14.5km/h 23% 0.00in /  0mm 49.0 W/m2
17:00 89.1 °F /  31.7 °C 46.4 °F /  8 °C 29.65in /  1003.9hPa East 2.0mph /  3.2km/h 6.0mph /  9.7km/h 23% 0.00in /  0mm 40.0 W/m2
17:05 88.2 °F /  31.2 °C 45.7 °F /  7.6 °C 29.65in /  1003.9hPa ENE 0.9mph /  1.4km/h 4.0mph /  6.4km/h 23% 0.00in /  0mm 39.0 W/m2
17:10 87.8 °F /  31 °C 46.6 °F /  8.1 °C 29.65in /  1003.9hPa ENE 0.9mph /  1.4km/h 5.0mph /  8km/h 24% 0.00in /  0mm 47.0 W/m2
17:15 87.4 °F /  30.8 °C 45.1 °F /  7.3 °C 29.65in /  1003.9hPa Calm   3.0mph /  4.8km/h 23% 0.00in /  0mm 62.0 W/m2
17:25 87.1 °F /  30.6 °C 46.9 °F /  8.3 °C 29.65in /  1003.9hPa Calm   4.0mph /  6.4km/h 25% 0.00in /  0mm 125.0 W/m2
17:30 87.3 °F /  30.7 °C 47.1 °F /  8.4 °C 29.65in /  1003.9hPa Calm   1.0mph /  1.6km/h 25% 0.00in /  0mm 512.0 W/m2
17:38 87.8 °F /  31 °C 47.7 °F /  8.7 °C 29.64in /  1003.6hPa WNW 0.9mph /  1.4km/h 1.0mph /  1.6km/h 25% 0.00in /  0mm 155.0 W/m2
17:48 87.6 °F /  30.9 °C 46.4 °F /  8 °C 29.64in /  1003.6hPa SE 2.9mph /  4.7km/h 4.0mph /  6.4km/h 24% 0.00in /  0mm 169.0 W/m2
17:53 88.0 °F /  31.1 °C 46.6 °F /  8.1 °C 29.64in /  1003.6hPa ESE 2.0mph /  3.2km/h 6.0mph /  9.7km/h 24% 0.00in /  0mm 434.0 W/m2
17:58 88.3 °F /  31.3 °C 46.9 °F /  8.3 °C 29.64in /  1003.6hPa Calm   5.0mph /  8km/h 24% 0.00in /  0mm 90.0 W/m2
18:03 88.3 °F /  31.3 °C 46.9 °F /  8.3 °C 29.64in /  1003.6hPa SE 0.9mph /  1.4km/h 4.0mph /  6.4km/h 24% 0.00in /  0mm 60.0 W/m2
18:11 88.0 °F /  31.1 °C 46.6 °F /  8.1 °C 29.64in /  1003.6hPa Calm   7.0mph /  11.3km/h 24% 0.00in /  0mm 40.0 W/m2
18:16 87.4 °F /  30.8 °C 47.3 °F /  8.5 °C 29.64in /  1003.6hPa Calm   5.0mph /  8km/h 25% 0.00in /  0mm 35.0 W/m2
18:21 87.1 °F /  30.6 °C 45.9 °F /  7.7 °C 29.64in /  1003.6hPa ENE 2.0mph /  3.2km/h 6.0mph /  9.7km/h 24% 0.00in /  0mm 44.0 W/m2
18:26 86.7 °F /  30.4 °C 46.8 °F /  8.2 °C 29.63in /  1003.3hPa Calm   1.0mph /  1.6km/h 25% 0.00in /  0mm 65.0 W/m2
18:32 87.1 °F /  30.6 °C 46.9 °F /  8.3 °C 29.64in /  1003.6hPa Calm   2.0mph /  3.2km/h 25% 0.00in /  0mm 220.0 W/m2
18:37 87.6 °F /  30.9 °C 46.4 °F /  8 °C 29.63in /  1003.3hPa NE 2.0mph /  3.2km/h 4.0mph /  6.4km/h 24% 0.00in /  0mm 200.0 W/m2
18:42 88.2 °F /  31.2 °C 45.7 °F /  7.6 °C 29.63in /  1003.3hPa ENE 2.9mph /  4.7km/h 5.0mph /  8km/h 23% 0.00in /  0mm 51.0 W/m2
18:47 88.2 °F /  31.2 °C 46.8 °F /  8.2 °C 29.63in /  1003.3hPa NNE 0.9mph /  1.4km/h 2.0mph /  3.2km/h 24% 0.00in /  0mm 40.0 W/m2
18:52 87.6 °F /  30.9 °C 46.4 °F /  8 °C 29.63in /  1003.3hPa NNE 2.0mph /  3.2km/h 4.0mph /  6.4km/h 24% 0.00in /  0mm 23.0 W/m2
18:57 87.3 °F /  30.7 °C 46.0 °F /  7.8 °C 29.63in /  1003.3hPa NE 2.0mph /  3.2km/h 2.0mph /  3.2km/h 24% 0.00in /  0mm 32.0 W/m2
19:02 87.1 °F /  30.6 °C 46.9 °F /  8.3 °C 29.64in /  1003.6hPa Calm   1.0mph /  1.6km/h 25% 0.00in /  0mm 33.0 W/m2
19:07 86.9 °F /  30.5 °C 46.8 °F /  8.2 °C 29.65in /  1003.9hPa SE 0.9mph /  1.4km/h 2.0mph /  3.2km/h 25% 0.00in /  0mm 39.0 W/m2
19:13 86.2 °F /  30.1 °C 44.1 °F /  6.7 °C 29.65in /  1003.9hPa ENE 11.0mph /  17.7km/h 16.0mph /  25.7km/h 23% 0.00in /  0mm 40.0 W/m2
19:18 84.7 °F /  29.3 °C 43.9 °F /  6.6 °C 29.65in /  1003.9hPa East 8.9mph /  14.3km/h 14.0mph /  22.5km/h 24% 0.00in /  0mm 28.0 W/m2
19:23 84.0 °F /  28.9 °C 44.4 °F /  6.9 °C 29.65in /  1003.9hPa SE 2.9mph /  4.7km/h 16.0mph /  25.7km/h 25% 0.00in /  0mm 18.0 W/m2
19:28 83.3 °F /  28.5 °C 44.8 °F /  7.1 °C 29.65in /  1003.9hPa East 4.9mph /  7.9km/h 14.0mph /  22.5km/h 26% 0.00in /  0mm 11.0 W/m2
19:33 82.8 °F /  28.2 °C 44.4 °F /  6.9 °C 29.65in /  1003.9hPa North 0.9mph /  1.4km/h 3.0mph /  4.8km/h 26% 0.00in /  0mm 5.0 W/m2
19:43 82.0 °F /  27.8 °C 44.8 °F /  7.1 °C 29.66in /  1004.3hPa Calm   1.0mph /  1.6km/h 27% 0.00in /  0mm 0.0 W/m2
19:49 81.7 °F /  27.6 °C 49.8 °F /  9.9 °C 29.67in /  1004.6hPa WSW 2.9mph /  4.7km/h 7.0mph /  11.3km/h 33% 0.00in /  0mm 0.0 W/m2
19:57 80.8 °F /  27.1 °C 51.3 °F /  10.7 °C 29.67in /  1004.6hPa Calm   5.0mph /  8km/h 36% 0.00in /  0mm 0.0 W/m2
20:02 80.2 °F /  26.8 °C 50.9 °F /  10.5 °C 29.67in /  1004.6hPa WSW 4.9mph /  7.9km/h 7.0mph /  11.3km/h 36% 0.00in /  0mm 0.0 W/m2
20:08 79.9 °F /  26.6 °C 51.3 °F /  10.7 °C 29.67in /  1004.6hPa WSW 2.9mph /  4.7km/h 4.0mph /  6.4km/h 37% 0.00in /  0mm 0.0 W/m2
20:13 79.5 °F /  26.4 °C 50.2 °F /  10.1 °C 29.67in /  1004.6hPa Calm   2.0mph /  3.2km/h 36% 0.00in /  0mm 0.0 W/m2
20:18 79.2 °F /  26.2 °C 50.7 °F /  10.4 °C 29.67in /  1004.6hPa Calm     37% 0.00in /  0mm 0.0 W/m2
20:23 79.0 °F /  26.1 °C 51.3 °F /  10.7 °C 29.67in /  1004.6hPa Calm   2.0mph /  3.2km/h 38% 0.00in /  0mm 0.0 W/m2
20:33 78.1 °F /  25.6 °C 51.8 °F /  11 °C 29.67in /  1004.6hPa NNW 2.0mph /  3.2km/h 5.0mph /  8km/h 40% 0.00in /  0mm 0.0 W/m2
20:40 77.5 °F /  25.3 °C 52.0 °F /  11.1 °C 29.68in /  1005hPa Calm   2.0mph /  3.2km/h 41% 0.00in /  0mm 0.0 W/m2
20:45 77.2 °F /  25.1 °C 52.3 °F /  11.3 °C 29.67in /  1004.6hPa Calm   1.0mph /  1.6km/h 42% 0.00in /  0mm 0.0 W/m2
20:50 76.8 °F /  24.9 °C 52.0 °F /  11.1 °C 29.68in /  1005hPa NW 4.0mph /  6.4km/h 4.0mph /  6.4km/h 42% 0.00in /  0mm 0.0 W/m2
20:55 76.5 °F /  24.7 °C 51.6 °F /  10.9 °C 29.68in /  1005hPa Calm     42% 0.00in /  0mm 0.0 W/m2
21:03 76.3 °F /  24.6 °C 51.4 °F /  10.8 °C 29.68in /  1005hPa Calm   3.0mph /  4.8km/h 42% 0.00in /  0mm 0.0 W/m2
21:08 76.1 °F /  24.5 °C 52.0 °F /  11.1 °C 29.68in /  1005hPa Calm   1.0mph /  1.6km/h 43% 0.00in /  0mm 0.0 W/m2
21:13 76.1 °F /  24.5 °C 56.7 °F /  13.7 °C 29.68in /  1005hPa Calm     51% 0.00in /  0mm 0.0 W/m2
21:18 75.7 °F /  24.3 °C 56.3 °F /  13.5 °C 29.69in /  1005.3hPa Calm     51% 0.00in /  0mm 0.0 W/m2
21:23 75.2 °F /  24 °C 57.4 °F /  14.1 °C 29.68in /  1005hPa SSW 2.9mph /  4.7km/h 3.0mph /  4.8km/h 54% 0.00in /  0mm 0.0 W/m2
21:37 73.9 °F /  23.3 °C 57.2 °F /  14 °C 29.69in /  1005.3hPa Calm   1.0mph /  1.6km/h 56% 0.00in /  0mm 0.0 W/m2
21:43 73.6 °F /  23.1 °C 56.8 °F /  13.8 °C 29.69in /  1005.3hPa Calm     56% 0.00in /  0mm 0.0 W/m2
21:48 73.2 °F /  22.9 °C 56.1 °F /  13.4 °C 29.69in /  1005.3hPa Calm   2.0mph /  3.2km/h 55% 0.00in /  0mm 0.0 W/m2
21:53 72.9 °F /  22.7 °C 55.8 °F /  13.2 °C 29.70in /  1005.6hPa Calm   2.0mph /  3.2km/h 55% 0.00in /  0mm 0.0 W/m2
21:58 72.7 °F /  22.6 °C 55.6 °F /  13.1 °C 29.69in /  1005.3hPa Calm   2.0mph /  3.2km/h 55% 0.00in /  0mm 0.0 W/m2
22:04 72.3 °F /  22.4 °C 55.8 °F /  13.2 °C 29.70in /  1005.6hPa ENE 0.9mph /  1.4km/h 1.0mph /  1.6km/h 56% 0.00in /  0mm 0.0 W/m2
22:09 72.0 °F /  22.2 °C 55.4 °F /  13 °C 29.70in /  1005.6hPa Calm     56% 0.00in /  0mm 0.0 W/m2
22:14 72.0 °F /  22.2 °C 55.4 °F /  13 °C 29.70in /  1005.6hPa Calm   1.0mph /  1.6km/h 56% 0.00in /  0mm 0.0 W/m2
22:22 71.4 °F /  21.9 °C 54.9 °F /  12.7 °C 29.71in /  1006hPa ENE 0.9mph /  1.4km/h 3.0mph /  4.8km/h 56% 0.00in /  0mm 0.0 W/m2
22:27 71.2 °F /  21.8 °C 54.7 °F /  12.6 °C 29.71in /  1006hPa Calm     56% 0.00in /  0mm 0.0 W/m2
22:33 71.1 °F /  21.7 °C 55.0 °F /  12.8 °C 29.71in /  1006hPa Calm     57% 0.00in /  0mm 0.0 W/m2
22:38 71.1 °F /  21.7 °C 55.0 °F /  12.8 °C 29.71in /  1006hPa Calm     57% 0.00in /  0mm 0.0 W/m2
22:43 70.9 °F /  21.6 °C 55.4 °F /  13 °C 29.71in /  1006hPa Calm     58% 0.00in /  0mm 0.0 W/m2
22:48 70.7 °F /  21.5 °C 55.6 °F /  13.1 °C 29.71in /  1006hPa Calm     59% 0.00in /  0mm 0.0 W/m2
22:53 70.5 °F /  21.4 °C 55.0 °F /  12.8 °C 29.72in /  1006.3hPa Calm     58% 0.00in /  0mm 0.0 W/m2
22:58 70.3 °F /  21.3 °C 55.8 °F /  13.2 °C 29.72in /  1006.3hPa Calm     60% 0.00in /  0mm 0.0 W/m2
23:03 70.3 °F /  21.3 °C 55.8 °F /  13.2 °C 29.72in /  1006.3hPa Calm     60% 0.00in /  0mm 0.0 W/m2
23:14 70.2 °F /  21.2 °C 56.1 °F /  13.4 °C 29.72in /  1006.3hPa Calm     61% 0.00in /  0mm 0.0 W/m2
23:30 69.6 °F /  20.9 °C 55.6 °F /  13.1 °C 29.72in /  1006.3hPa Calm     61% 0.00in /  0mm 0.0 W/m2
23:35 69.4 °F /  20.8 °C 54.9 °F /  12.7 °C 29.72in /  1006.3hPa Calm     60% 0.00in /  0mm 0.0 W/m2
23:40 69.4 °F /  20.8 °C 54.9 °F /  12.7 °C 29.72in /  1006.3hPa Calm     60% 0.00in /  0mm 0.0 W/m2
23:45 69.3 °F /  20.7 °C 54.3 °F /  12.4 °C 29.71in /  1006hPa Calm     59% 0.00in /  0mm 0.0 W/m2
23:51 69.3 °F /  20.7 °C 55.8 °F /  13.2 °C 29.72in /  1006.3hPa Calm     62% 0.00in /  0mm 0.0 W/m2
23:57 69.3 °F /  20.7 °C 55.2 °F /  12.9 °C 29.72in /  1006.3hPa Calm     61% 0.00in /  0mm 0.0 W/m2
Olympia, Windhoek, Namibia
Compliments of Weather Underground - 3 mb